createdAt,value
2019-03-08T00:02:04.220Z,99.90
2019-03-08T00:04:32.916Z,99.90
2019-03-08T00:20:56.239Z,99.90
2019-03-08T00:23:24.750Z,99.90
2019-03-08T00:25:53.857Z,99.90
2019-03-08T00:28:22.406Z,99.90
2019-03-08T00:30:53.809Z,99.90
2019-03-08T00:33:22.714Z,99.90
2019-03-08T00:35:53.392Z,99.90
2019-03-08T00:38:21.982Z,99.90
2019-03-08T00:40:51.648Z,99.90
2019-03-08T00:43:20.533Z,99.90
2019-03-08T00:45:50.094Z,99.90
2019-03-08T00:48:19.049Z,99.90
2019-03-08T00:50:47.805Z,99.90
2019-03-08T00:53:16.325Z,99.90
2019-03-08T00:55:44.893Z,99.90
2019-03-08T00:58:13.699Z,99.90
2019-03-08T01:00:44.925Z,99.90
2019-03-08T01:03:13.697Z,99.90
2019-03-08T01:05:42.456Z,99.90
2019-03-08T01:08:11.606Z,99.90
2019-03-08T01:10:42.686Z,99.90
2019-03-08T01:13:13.019Z,99.90
2019-03-08T01:15:41.980Z,99.90
2019-03-08T01:18:10.454Z,99.90
2019-03-08T01:20:40.863Z,99.90
2019-03-08T01:23:09.654Z,99.90
2019-03-08T01:25:38.455Z,99.90
2019-03-08T01:28:13.883Z,99.90
2019-03-08T01:30:42.877Z,99.90
2019-03-08T01:33:12.399Z,99.90
2019-03-08T01:35:41.408Z,99.90
2019-03-08T01:38:10.377Z,99.90
2019-03-08T01:40:42.186Z,99.90
2019-03-08T01:43:10.797Z,99.90
2019-03-08T01:45:40.103Z,99.90
2019-03-08T01:48:08.927Z,99.90
2019-03-08T01:50:37.827Z,99.90
2019-03-08T01:53:06.593Z,99.90
2019-03-08T01:55:35.114Z,99.90
2019-03-08T01:58:04.635Z,99.90
2019-03-08T02:00:34.693Z,99.90
2019-03-08T02:03:04.164Z,99.90
2019-03-08T02:05:32.634Z,99.90
2019-03-08T02:08:01.483Z,99.90
2019-03-08T02:10:30.077Z,99.90
2019-03-08T02:12:58.938Z,99.90
2019-03-08T02:15:29.491Z,99.90
2019-03-08T02:17:57.945Z,99.90
2019-03-08T02:20:29.065Z,99.90
2019-03-08T02:22:57.865Z,99.90
2019-03-08T02:25:26.639Z,99.90
2019-03-08T02:27:55.101Z,99.90
2019-03-08T02:30:24.313Z,99.90
2019-03-08T02:32:54.298Z,99.90
2019-03-08T02:35:22.797Z,99.90
2019-03-08T02:37:51.615Z,99.90
2019-03-08T02:40:26.542Z,99.90
2019-03-08T02:42:57.385Z,99.90
2019-03-08T02:45:25.972Z,99.90
2019-03-08T02:47:55.986Z,99.90
2019-03-08T02:50:24.867Z,99.90
2019-03-08T02:52:53.637Z,99.90
2019-03-08T02:55:22.549Z,99.90
2019-03-08T02:57:51.376Z,99.90
2019-03-08T03:00:22.620Z,99.90
2019-03-08T03:02:50.930Z,99.90
2019-03-08T03:05:22.074Z,99.90
2019-03-08T03:07:50.673Z,99.90
2019-03-08T03:10:19.600Z,99.90
2019-03-08T03:12:48.398Z,99.90
2019-03-08T03:15:16.968Z,99.90
2019-03-08T03:17:46.670Z,99.90
2019-03-08T03:20:16.380Z,99.90
2019-03-08T03:22:45.169Z,99.90
2019-03-08T03:25:15.398Z,99.90
2019-03-08T03:27:44.286Z,99.90
2019-03-08T03:30:18.151Z,99.90
2019-03-08T03:32:48.493Z,99.90
2019-03-08T03:35:17.068Z,99.90
2019-03-08T03:37:46.252Z,99.90
2019-03-08T03:40:16.537Z,99.90
2019-03-08T03:42:45.352Z,99.90
2019-03-08T03:45:17.623Z,99.90
2019-03-08T03:47:46.626Z,99.90
2019-03-08T03:50:15.806Z,99.90
2019-03-08T03:52:47.301Z,99.90
2019-03-08T03:55:17.380Z,99.90
2019-03-08T03:57:46.010Z,99.90
2019-03-08T04:00:25.538Z,99.90
2019-03-08T04:02:54.617Z,99.90
2019-03-08T04:05:23.060Z,99.90
2019-03-08T04:07:53.617Z,99.90
2019-03-08T04:10:22.506Z,99.90
2019-03-08T04:12:52.616Z,99.90
2019-03-08T04:15:22.450Z,99.90
2019-03-08T04:17:51.347Z,99.90
2019-03-08T04:20:22.339Z,99.90
2019-03-08T04:22:55.766Z,99.90
2019-03-08T04:25:27.002Z,99.90
2019-03-08T04:27:55.886Z,99.90
2019-03-08T04:30:24.536Z,99.90
2019-03-08T04:32:53.374Z,99.90
2019-03-08T04:35:23.794Z,99.90
2019-03-08T04:37:55.750Z,99.90
2019-03-08T04:40:25.634Z,99.90
2019-03-08T04:42:54.765Z,99.90
2019-03-08T04:45:25.109Z,99.90
2019-03-08T04:47:54.344Z,99.90
2019-03-08T04:50:22.950Z,99.90
2019-03-08T04:52:51.770Z,99.90
2019-03-08T04:55:21.788Z,99.90
2019-03-08T04:57:50.659Z,99.90
2019-03-08T05:00:19.950Z,99.90
2019-03-08T05:02:49.586Z,99.90
2019-03-08T05:05:18.402Z,99.90
2019-03-08T05:07:47.241Z,99.90
2019-03-08T05:10:19.334Z,99.90
2019-03-08T05:12:48.154Z,99.90
2019-03-08T05:15:18.600Z,99.90
2019-03-08T05:17:47.513Z,99.90
2019-03-08T05:20:15.973Z,99.90
2019-03-08T05:22:44.829Z,99.90
2019-03-08T05:25:14.320Z,99.90
2019-03-08T05:27:43.123Z,99.90
2019-03-08T05:30:19.346Z,99.90
2019-03-08T05:32:47.860Z,99.90
2019-03-08T05:35:16.409Z,99.90
2019-03-08T05:37:46.753Z,99.90
2019-03-08T05:40:15.925Z,99.90
2019-03-08T05:42:44.705Z,99.90
2019-03-08T05:45:16.646Z,99.90
2019-03-08T05:47:45.158Z,99.90
2019-03-08T05:50:14.232Z,99.90
2019-03-08T05:52:43.155Z,99.90
2019-03-08T05:55:12.346Z,99.90
2019-03-08T05:57:40.922Z,99.90
2019-03-08T06:00:14.281Z,99.90
2019-03-08T06:02:43.055Z,99.90
2019-03-08T06:05:11.963Z,99.90
2019-03-08T06:07:40.867Z,99.90
2019-03-08T06:10:27.826Z,99.90
2019-03-08T06:13:00.570Z,99.90
2019-03-08T06:15:29.166Z,99.90
2019-03-08T06:17:59.418Z,99.90
2019-03-08T06:20:28.278Z,99.90
2019-03-08T06:22:56.865Z,99.90
2019-03-08T06:25:25.392Z,99.90
2019-03-08T06:27:53.965Z,99.90
2019-03-08T06:30:23.596Z,99.90
2019-03-08T06:32:52.417Z,99.90
2019-03-08T06:35:20.973Z,99.90
2019-03-08T06:37:49.828Z,99.90
2019-03-08T06:40:18.327Z,99.90
2019-03-08T06:42:47.211Z,99.90
2019-03-08T06:45:19.291Z,99.90
2019-03-08T06:47:47.991Z,99.90
2019-03-08T06:50:16.994Z,99.90
2019-03-08T06:52:45.597Z,99.90
2019-03-08T06:55:15.579Z,99.90
2019-03-08T06:57:44.221Z,99.90
2019-03-08T07:00:28.925Z,99.90
2019-03-08T07:02:57.828Z,99.90
2019-03-08T07:05:26.780Z,99.90
2019-03-08T07:07:55.693Z,99.90
2019-03-08T07:10:25.333Z,99.90
2019-03-08T07:13:02.929Z,99.90
2019-03-08T07:15:26.778Z,99.90
2019-03-08T07:17:55.313Z,99.90
2019-03-08T07:20:37.737Z,99.90
2019-03-08T07:23:16.982Z,99.90
2019-03-08T07:26:03.773Z,99.90
2019-03-08T07:28:37.183Z,99.90
2019-03-08T07:31:23.837Z,99.90
2019-03-08T07:34:11.147Z,99.90
2019-03-08T07:36:59.529Z,99.90
2019-03-08T07:39:49.010Z,99.90
2019-03-08T07:42:19.147Z,99.90
2019-03-08T07:45:01.062Z,99.90
2019-03-08T07:47:34.343Z,99.90
2019-03-08T07:50:04.914Z,99.90
2019-03-08T07:52:44.185Z,99.90
2019-03-08T07:55:23.832Z,99.90
2019-03-08T07:57:54.050Z,99.90
2019-03-08T08:00:32.872Z,99.90
2019-03-08T08:03:06.964Z,99.90
2019-03-08T08:05:43.132Z,99.90
2019-03-08T08:08:16.026Z,99.90
2019-03-08T08:10:55.194Z,99.90
2019-03-08T08:13:41.565Z,99.90
2019-03-08T08:16:12.002Z,99.90
2019-03-08T08:18:58.780Z,99.90
2019-03-08T08:21:28.900Z,99.90
2019-03-08T08:24:15.249Z,99.90
2019-03-08T08:26:48.802Z,99.90
2019-03-08T08:29:34.732Z,99.90
2019-03-08T08:32:15.467Z,99.90
2019-03-08T08:34:46.900Z,99.90
2019-03-08T08:37:27.318Z,99.90
2019-03-08T08:39:55.354Z,99.90
2019-03-08T08:42:31.706Z,99.90
2019-03-08T08:45:18.423Z,99.90
2019-03-08T08:47:48.962Z,99.90
2019-03-08T08:50:28.450Z,99.90
2019-03-08T08:53:06.098Z,99.90
2019-03-08T08:55:39.101Z,99.90
2019-03-08T08:58:15.792Z,99.90
2019-03-08T09:01:02.272Z,99.90
2019-03-08T09:03:48.822Z,99.90
2019-03-08T09:06:23.022Z,99.90
2019-03-08T09:09:09.756Z,99.90
2019-03-08T09:11:50.820Z,99.90
2019-03-08T09:14:16.641Z,99.90
2019-03-08T09:16:47.051Z,99.90
2019-03-08T09:19:26.114Z,99.90
2019-03-08T09:21:57.074Z,99.90
2019-03-08T09:24:30.703Z,99.90
2019-03-08T09:27:12.608Z,99.90
2019-03-08T09:29:59.586Z,99.90
2019-03-08T09:32:33.074Z,99.90
2019-03-08T09:35:06.548Z,99.90
2019-03-08T09:37:47.643Z,99.90
2019-03-08T09:40:36.242Z,99.90
2019-03-08T09:43:16.128Z,99.90
2019-03-08T09:45:46.550Z,99.90
2019-03-08T09:48:26.783Z,99.90
2019-03-08T09:51:01.014Z,99.90
2019-03-08T09:53:33.968Z,99.90
2019-03-08T09:56:16.442Z,99.90
2019-03-08T09:59:04.980Z,99.90
2019-03-08T10:01:41.153Z,99.90
2019-03-08T10:04:14.000Z,99.90
2019-03-08T10:06:44.370Z,99.90
2019-03-08T10:09:17.508Z,99.90
2019-03-08T10:11:50.289Z,99.90
2019-03-08T10:14:33.292Z,99.90
2019-03-08T10:17:15.716Z,99.90
2019-03-08T10:19:50.244Z,99.90
2019-03-08T10:22:20.369Z,99.90
2019-03-08T10:25:01.226Z,99.90
2019-03-08T10:27:38.390Z,99.90
2019-03-08T10:30:21.103Z,99.90
2019-03-08T10:33:06.470Z,99.90
2019-03-08T10:35:42.999Z,99.90
2019-03-08T10:38:31.616Z,99.90
2019-03-08T10:41:08.203Z,99.90
2019-03-08T10:43:41.520Z,99.90
2019-03-08T10:46:28.383Z,99.90
2019-03-08T10:48:59.057Z,99.90
2019-03-08T10:51:30.405Z,99.90
2019-03-08T10:54:14.029Z,99.90
2019-03-08T10:57:00.675Z,99.90
2019-03-08T10:59:47.477Z,99.90
2019-03-08T11:02:20.935Z,99.90
2019-03-08T11:04:51.311Z,99.90
2019-03-08T11:07:27.652Z,99.90
2019-03-08T11:10:05.893Z,99.90
2019-03-08T11:12:39.811Z,99.90
2019-03-08T11:15:24.500Z,99.90
2019-03-08T11:18:03.246Z,99.90
2019-03-08T11:20:37.933Z,99.90
2019-03-08T11:23:08.099Z,99.90
2019-03-08T11:25:38.562Z,99.90
2019-03-08T11:28:10.463Z,99.90
2019-03-08T11:30:40.655Z,99.90
2019-03-08T11:33:26.449Z,99.90
2019-03-08T11:35:58.112Z,99.90
2019-03-08T11:38:36.756Z,99.90
2019-03-08T11:41:07.342Z,99.90
2019-03-08T11:43:37.883Z,99.90
2019-03-08T11:46:10.663Z,99.90
2019-03-08T11:48:41.305Z,99.90
2019-03-08T11:51:17.535Z,99.90
2019-03-08T11:54:04.601Z,99.90
2019-03-08T11:56:55.649Z,99.90
2019-03-08T11:59:25.067Z,99.90
2019-03-08T12:01:55.281Z,99.90
2019-03-08T12:04:44.037Z,99.90
2019-03-08T12:07:14.234Z,99.90
2019-03-08T12:09:44.445Z,98.20
2019-03-08T12:12:24.343Z,99.90
2019-03-08T12:14:54.485Z,99.90
2019-03-08T12:17:27.809Z,99.90
2019-03-08T12:20:01.033Z,99.90
2019-03-08T12:22:35.424Z,99.90
2019-03-08T12:25:07.740Z,99.80
2019-03-08T12:27:39.817Z,99.00
2019-03-08T12:30:24.275Z,93.90
2019-03-08T12:33:06.438Z,93.80
2019-03-08T12:35:42.225Z,96.70
2019-03-08T12:38:16.218Z,93.10
2019-03-08T12:41:03.008Z,99.10
2019-03-08T12:43:33.441Z,97.80
2019-03-08T12:46:04.167Z,99.90
2019-03-08T12:48:37.402Z,99.90
2019-03-08T12:51:14.190Z,99.90
2019-03-08T12:53:47.167Z,99.90
2019-03-08T12:56:33.743Z,99.90
2019-03-08T12:59:10.016Z,99.90
2019-03-08T13:01:43.434Z,98.80
2019-03-08T13:04:24.529Z,99.90
2019-03-08T13:07:04.111Z,99.90
2019-03-08T13:09:38.064Z,99.90
2019-03-08T13:12:06.640Z,99.90
2019-03-08T13:14:35.428Z,99.90
2019-03-08T13:17:03.989Z,99.90
2019-03-08T13:19:32.519Z,99.90
2019-03-08T13:22:01.044Z,99.90
2019-03-08T13:24:31.357Z,99.90
2019-03-08T13:26:59.876Z,99.90
2019-03-08T13:29:28.338Z,99.90
2019-03-08T13:31:57.194Z,99.90
2019-03-08T13:34:25.796Z,99.90
2019-03-08T13:36:56.018Z,99.90
2019-03-08T13:39:24.937Z,99.90
2019-03-08T13:41:53.482Z,99.90
2019-03-08T13:44:23.413Z,99.90
2019-03-08T13:46:52.388Z,99.90
2019-03-08T13:49:21.107Z,99.90
2019-03-08T13:51:49.674Z,99.90
2019-03-08T13:54:18.548Z,99.90
2019-03-08T13:56:47.288Z,99.90
2019-03-08T13:59:16.092Z,99.90
2019-03-08T14:01:44.826Z,99.90
2019-03-08T14:04:13.536Z,99.90
2019-03-08T14:06:42.672Z,99.90
2019-03-08T14:09:11.525Z,99.90
2019-03-08T14:11:40.348Z,99.90
2019-03-08T14:14:08.809Z,99.90
2019-03-08T14:16:38.594Z,99.90
2019-03-08T14:19:07.121Z,99.90
2019-03-08T14:21:36.027Z,99.90
2019-03-08T14:24:05.107Z,99.90
2019-03-08T14:26:33.990Z,99.90
2019-03-08T14:29:02.543Z,99.90
2019-03-08T14:31:33.014Z,99.90
2019-03-08T14:34:02.817Z,99.90
2019-03-08T14:36:31.596Z,99.90
2019-03-08T14:39:08.012Z,99.90
2019-03-08T14:41:40.283Z,99.90
2019-03-08T14:44:14.233Z,99.90
2019-03-08T14:46:44.772Z,99.90
2019-03-08T14:49:13.527Z,99.90
2019-03-08T14:51:44.717Z,99.90
2019-03-08T14:54:12.444Z,99.90
2019-03-08T14:56:44.920Z,99.90
2019-03-08T14:59:15.462Z,99.90
2019-03-08T15:01:45.764Z,99.90
2019-03-08T15:04:14.212Z,99.90
2019-03-08T15:06:44.181Z,99.90
2019-03-08T15:09:14.741Z,99.90
2019-03-08T15:11:43.184Z,99.90
2019-03-08T15:14:11.970Z,99.90
2019-03-08T15:16:40.862Z,99.90
2019-03-08T15:19:09.395Z,99.90
2019-03-08T15:21:48.062Z,99.90
2019-03-08T15:24:08.987Z,99.90
2019-03-08T15:26:37.515Z,99.90
2019-03-08T15:29:06.136Z,99.90
2019-03-08T15:31:34.594Z,99.90
2019-03-08T15:34:04.951Z,99.90
2019-03-08T15:36:33.764Z,99.90
2019-03-08T15:39:02.675Z,99.90
2019-03-08T15:41:31.465Z,99.90
2019-03-08T15:44:01.329Z,99.90
2019-03-08T15:46:30.194Z,99.90
2019-03-08T15:48:58.898Z,99.90
2019-03-08T15:51:27.389Z,99.90
2019-03-08T15:53:57.805Z,99.90
2019-03-08T15:56:26.251Z,99.90
2019-03-08T15:58:55.061Z,99.90
2019-03-08T16:01:25.417Z,99.90
2019-03-08T16:03:53.861Z,99.90
2019-03-08T16:06:22.583Z,99.90
2019-03-08T16:08:51.279Z,99.90
2019-03-08T16:11:19.897Z,99.90
2019-03-08T16:13:48.698Z,99.90
2019-03-08T16:16:17.499Z,99.90
2019-03-08T16:18:48.212Z,99.90
2019-03-08T16:21:17.115Z,99.90
2019-03-08T16:23:45.883Z,99.90
2019-03-08T16:26:14.358Z,99.90
2019-03-08T16:28:43.091Z,99.90
2019-03-08T16:31:13.063Z,99.90
2019-03-08T16:33:43.315Z,99.90
2019-03-08T16:36:19.441Z,99.90
2019-03-08T16:38:52.630Z,99.90
2019-03-08T16:41:22.505Z,99.90
2019-03-08T16:44:00.702Z,99.90
2019-03-08T16:46:30.743Z,99.90
2019-03-08T16:49:01.318Z,99.90
2019-03-08T16:51:40.512Z,99.90
2019-03-08T16:54:10.640Z,99.90
2019-03-08T16:56:44.091Z,99.90
2019-03-08T16:59:19.994Z,99.90
2019-03-08T17:01:54.362Z,99.90
2019-03-08T17:04:25.374Z,99.90
2019-03-08T17:06:55.483Z,99.90
2019-03-08T17:09:31.821Z,99.90
2019-03-08T17:12:16.763Z,99.90
2019-03-08T17:14:51.070Z,99.90
2019-03-08T17:17:37.862Z,99.90
2019-03-08T17:20:21.769Z,99.90
2019-03-08T17:22:53.305Z,99.90
2019-03-08T17:25:23.745Z,99.90
2019-03-08T17:27:54.060Z,99.90
2019-03-08T17:30:35.293Z,99.90
2019-03-08T17:33:06.120Z,99.90
2019-03-08T17:35:36.218Z,99.90
2019-03-08T17:38:22.615Z,99.90
2019-03-08T17:40:53.080Z,99.90
2019-03-08T17:43:40.028Z,99.90
2019-03-08T17:46:28.643Z,99.90
2019-03-08T17:49:03.116Z,99.90
2019-03-08T17:51:33.351Z,99.90
2019-03-08T17:54:09.724Z,99.90
2019-03-08T17:56:52.258Z,99.90
2019-03-08T17:59:28.311Z,99.90
2019-03-08T18:02:17.770Z,99.90
2019-03-08T18:04:54.158Z,99.90
2019-03-08T18:07:27.330Z,99.90
2019-03-08T18:10:03.897Z,99.90
2019-03-08T18:12:36.604Z,99.90
2019-03-08T18:15:21.603Z,99.90
2019-03-08T18:18:08.535Z,99.90
2019-03-08T18:20:38.984Z,99.90
2019-03-08T18:23:27.496Z,99.90
2019-03-08T18:25:57.854Z,99.90
2019-03-08T18:28:45.978Z,99.90
2019-03-08T18:31:16.300Z,99.90
2019-03-08T18:33:49.022Z,99.90
2019-03-08T18:36:35.394Z,99.90
2019-03-08T18:39:07.334Z,99.90
2019-03-08T18:41:49.528Z,99.90
2019-03-08T18:44:19.956Z,99.90
2019-03-08T18:47:08.284Z,99.90
2019-03-08T18:49:43.062Z,99.90
2019-03-08T18:52:18.026Z,99.90
2019-03-08T18:54:53.845Z,99.90
2019-03-08T18:57:30.009Z,99.90
2019-03-08T19:00:00.418Z,99.90
2019-03-08T19:02:47.547Z,99.90
2019-03-08T19:05:17.883Z,99.90
2019-03-08T19:07:52.102Z,99.90
2019-03-08T19:10:25.757Z,99.90
2019-03-08T19:12:56.187Z,99.90
2019-03-08T19:15:42.877Z,99.90
2019-03-08T19:18:15.549Z,99.90
2019-03-08T19:21:01.931Z,99.90
2019-03-08T19:23:41.561Z,99.90
2019-03-08T19:26:20.675Z,99.90
2019-03-08T19:28:57.115Z,99.90
2019-03-08T19:31:28.773Z,99.90
2019-03-08T19:34:11.177Z,99.90
2019-03-08T19:36:48.341Z,99.90
2019-03-08T19:39:18.824Z,99.90
2019-03-08T19:41:53.512Z,99.90
2019-03-08T19:44:31.953Z,99.90
2019-03-08T19:47:02.225Z,99.90
2019-03-08T19:49:48.899Z,99.90
2019-03-08T19:52:31.409Z,99.90
2019-03-08T19:55:09.325Z,99.90
2019-03-08T19:57:50.239Z,99.90
2019-03-08T20:00:23.652Z,99.90
2019-03-08T20:03:05.834Z,99.90
2019-03-08T20:05:47.943Z,99.90
2019-03-08T20:08:18.133Z,99.90
2019-03-08T20:10:57.470Z,99.90
2019-03-08T20:13:29.042Z,99.90
2019-03-08T20:16:10.907Z,99.90
2019-03-08T20:18:57.620Z,99.90
2019-03-08T20:21:33.854Z,99.90
2019-03-08T20:24:07.353Z,99.90
2019-03-08T20:26:37.439Z,99.90
2019-03-08T20:29:10.921Z,99.90
2019-03-08T20:31:53.356Z,99.90
2019-03-08T20:34:35.289Z,99.90
2019-03-08T20:37:23.962Z,99.90
2019-03-08T20:40:12.015Z,99.90
2019-03-08T20:42:42.203Z,99.90
2019-03-08T20:45:21.690Z,99.90
2019-03-08T20:47:50.485Z,99.90
2019-03-08T20:50:19.317Z,99.90
2019-03-08T20:52:47.867Z,99.90
2019-03-08T20:55:16.309Z,99.90
2019-03-08T20:57:51.299Z,99.90
2019-03-08T21:00:21.672Z,99.90
2019-03-08T21:02:52.081Z,99.90
2019-03-08T21:05:22.479Z,99.90
2019-03-08T21:07:53.364Z,99.90
2019-03-08T21:10:21.954Z,99.90
2019-03-08T21:12:55.694Z,99.90
2019-03-08T21:15:25.579Z,99.90
2019-03-08T21:17:54.143Z,99.90
2019-03-08T21:20:22.997Z,99.90
2019-03-08T21:22:52.465Z,99.90
2019-03-08T21:25:21.303Z,99.90
2019-03-08T21:27:49.996Z,99.90
2019-03-08T21:30:19.993Z,99.90
2019-03-08T21:32:49.881Z,99.90
2019-03-08T21:35:20.025Z,99.90
2019-03-08T21:37:48.497Z,99.90
2019-03-08T21:40:16.962Z,99.90
2019-03-08T21:42:45.487Z,99.90
2019-03-08T21:45:15.659Z,99.90
2019-03-08T21:47:44.612Z,99.90
2019-03-08T21:50:15.847Z,99.90
2019-03-08T21:52:44.526Z,99.90
2019-03-08T21:55:14.949Z,99.90
2019-03-08T21:57:44.947Z,99.90
2019-03-08T22:00:26.883Z,99.90
2019-03-08T22:02:55.341Z,99.90
2019-03-08T22:05:34.833Z,99.90
2019-03-08T22:08:04.425Z,99.90
2019-03-08T22:10:37.626Z,99.90
2019-03-08T22:13:06.219Z,99.90
2019-03-08T22:15:38.713Z,99.90
2019-03-08T22:18:06.857Z,99.90
2019-03-08T22:20:35.378Z,99.90
2019-03-08T22:23:04.071Z,99.90
2019-03-08T22:25:33.059Z,99.90
2019-03-08T22:28:02.753Z,99.90
2019-03-08T22:30:39.610Z,99.90
2019-03-08T22:33:12.698Z,99.90
2019-03-08T22:35:41.495Z,99.90
2019-03-08T22:38:09.950Z,99.90
2019-03-08T22:40:38.750Z,99.90
2019-03-08T22:43:11.809Z,99.90
2019-03-08T22:45:40.546Z,99.90
2019-03-08T22:48:09.089Z,99.90
2019-03-08T22:50:38.441Z,99.90
2019-03-08T22:53:08.874Z,99.90
2019-03-08T22:55:38.104Z,99.90
2019-03-08T22:58:06.904Z,99.90
2019-03-08T23:00:57.301Z,99.90
2019-03-08T23:03:32.033Z,99.90
2019-03-08T23:05:58.809Z,99.90
2019-03-08T23:08:30.014Z,99.90
2019-03-08T23:10:59.676Z,99.90
2019-03-08T23:13:28.526Z,99.90
2019-03-08T23:15:57.115Z,99.90
2019-03-08T23:18:34.706Z,99.90
2019-03-08T23:21:04.103Z,99.90
2019-03-08T23:23:32.612Z,99.90
2019-03-08T23:26:02.861Z,99.90
2019-03-08T23:28:33.038Z,99.90
2019-03-08T23:31:06.536Z,99.90
2019-03-08T23:33:34.984Z,99.90
2019-03-08T23:36:05.248Z,99.90
2019-03-08T23:38:34.036Z,99.90
2019-03-08T23:41:02.604Z,99.90
2019-03-08T23:43:31.400Z,99.90
2019-03-08T23:45:59.911Z,99.90
2019-03-08T23:48:28.701Z,99.90
2019-03-08T23:50:59.076Z,99.90
2019-03-08T23:53:29.610Z,99.90
2019-03-08T23:56:00.074Z,99.90
2019-03-08T23:58:28.813Z,99.90
